sensor_id;sensor_type;location;lat;lon;timestamp;temperature;humidity
31391;DHT22;18022;45.492;11.548;2022-12-18T00:00:29;4.10;99.90
31391;DHT22;18022;45.492;11.548;2022-12-18T00:02:55;4.20;99.90
31391;DHT22;18022;45.492;11.548;2022-12-18T00:05:21;4.10;99.90
31391;DHT22;18022;45.492;11.548;2022-12-18T00:07:47;4.00;99.90
31391;DHT22;18022;45.492;11.548;2022-12-18T00:10:12;3.90;99.90
31391;DHT22;18022;45.492;11.548;2022-12-18T00:12:38;4.00;99.90
31391;DHT22;18022;45.492;11.548;2022-12-18T00:15:04;3.90;99.90
31391;DHT22;18022;45.492;11.548;2022-12-18T00:17:30;3.90;99.90
31391;DHT22;18022;45.492;11.548;2022-12-18T00:19:55;3.90;99.90
31391;DHT22;18022;45.492;11.548;2022-12-18T00:22:21;3.90;99.90
31391;DHT22;18022;45.492;11.548;2022-12-18T00:24:47;4.00;99.90
31391;DHT22;18022;45.492;11.548;2022-12-18T00:27:12;4.00;99.90
31391;DHT22;18022;45.492;11.548;2022-12-18T00:29:38;3.90;99.90
31391;DHT22;18022;45.492;11.548;2022-12-18T00:32:03;3.80;99.90
31391;DHT22;18022;45.492;11.548;2022-12-18T00:34:29;3.90;99.90
31391;DHT22;18022;45.492;11.548;2022-12-18T00:36:55;3.80;99.90
31391;DHT22;18022;45.492;11.548;2022-12-18T00:39:21;3.80;99.90
31391;DHT22;18022;45.492;11.548;2022-12-18T00:41:46;3.90;99.90
31391;DHT22;18022;45.492;11.548;2022-12-18T00:44:30;3.90;99.90
31391;DHT22;18022;45.492;11.548;2022-12-18T00:46:56;3.80;99.90
31391;DHT22;18022;45.492;11.548;2022-12-18T00:49:22;3.80;99.90
31391;DHT22;18022;45.492;11.548;2022-12-18T00:51:48;3.80;99.90
31391;DHT22;18022;45.492;11.548;2022-12-18T00:54:13;3.60;99.90
31391;DHT22;18022;45.492;11.548;2022-12-18T00:56:39;3.60;99.90
31391;DHT22;18022;45.492;11.548;2022-12-18T00:59:05;3.60;99.90
31391;DHT22;18022;45.492;11.548;2022-12-18T01:01:31;3.70;99.90
31391;DHT22;18022;45.492;11.548;2022-12-18T01:03:59;3.60;99.90
31391;DHT22;18022;45.492;11.548;2022-12-18T01:06:24;3.60;99.90
31391;DHT22;18022;45.492;11.548;2022-12-18T01:08:50;3.60;99.90
31391;DHT22;18022;45.492;11.548;2022-12-18T01:11:17;3.70;99.90
31391;DHT22;18022;45.492;11.548;2022-12-18T01:13:44;3.80;99.90
31391;DHT22;18022;45.492;11.548;2022-12-18T01:16:15;3.80;99.90
31391;DHT22;18022;45.492;11.548;2022-12-18T01:18:42;3.80;99.90
31391;DHT22;18022;45.492;11.548;2022-12-18T01:21:09;3.80;99.90
31391;DHT22;18022;45.492;11.548;2022-12-18T01:23:36;3.90;99.90
31391;DHT22;18022;45.492;11.548;2022-12-18T01:26:07;3.90;99.90
31391;DHT22;18022;45.492;11.548;2022-12-18T01:28:35;3.90;99.90
31391;DHT22;18022;45.492;11.548;2022-12-18T01:33:36;3.70;99.90
31391;DHT22;18022;45.492;11.548;2022-12-18T01:36:02;3.70;99.90
31391;DHT22;18022;45.492;11.548;2022-12-18T01:38:28;3.70;99.90
31391;DHT22;18022;45.492;11.548;2022-12-18T01:41:01;3.60;99.90
31391;DHT22;18022;45.492;11.548;2022-12-18T01:43:55;3.60;99.90
31391;DHT22;18022;45.492;11.548;2022-12-18T01:46:24;3.70;99.90
31391;DHT22;18022;45.492;11.548;2022-12-18T01:48:56;3.80;99.90
31391;DHT22;18022;45.492;11.548;2022-12-18T01:51:23;3.90;99.90
31391;DHT22;18022;45.492;11.548;2022-12-18T01:53:49;3.90;99.90
31391;DHT22;18022;45.492;11.548;2022-12-18T01:56:16;3.80;99.90
31391;DHT22;18022;45.492;11.548;2022-12-18T01:58:56;3.70;99.90
31391;DHT22;18022;45.492;11.548;2022-12-18T02:01:24;3.70;99.90
31391;DHT22;18022;45.492;11.548;2022-12-18T02:03:51;3.90;99.90
31391;DHT22;18022;45.492;11.548;2022-12-18T02:09:18;4.00;99.90
31391;DHT22;18022;45.492;11.548;2022-12-18T02:11:53;4.00;99.90
31391;DHT22;18022;45.492;11.548;2022-12-18T02:14:26;4.00;99.90
31391;DHT22;18022;45.492;11.548;2022-12-18T02:17:10;4.00;99.90
31391;DHT22;18022;45.492;11.548;2022-12-18T02:28:15;4.00;99.90
31391;DHT22;18022;45.492;11.548;2022-12-18T02:30:43;4.10;99.90
31391;DHT22;18022;45.492;11.548;2022-12-18T02:33:11;4.00;99.90
31391;DHT22;18022;45.492;11.548;2022-12-18T02:35:38;3.90;99.90
31391;DHT22;18022;45.492;11.548;2022-12-18T02:38:06;4.00;99.90
31391;DHT22;18022;45.492;11.548;2022-12-18T02:40:32;4.00;99.90
31391;DHT22;18022;45.492;11.548;2022-12-18T02:43:13;4.00;99.90
31391;DHT22;18022;45.492;11.548;2022-12-18T02:48:49;3.90;99.90
31391;DHT22;18022;45.492;11.548;2022-12-18T02:51:24;4.00;99.90
31391;DHT22;18022;45.492;11.548;2022-12-18T02:54:06;4.00;99.90
31391;DHT22;18022;45.492;11.548;2022-12-18T02:56:46;4.00;99.90
31391;DHT22;18022;45.492;11.548;2022-12-18T02:59:19;3.90;99.90
31391;DHT22;18022;45.492;11.548;2022-12-18T03:04:42;4.00;99.90
31391;DHT22;18022;45.492;11.548;2022-12-18T03:07:16;4.00;99.90
31391;DHT22;18022;45.492;11.548;2022-12-18T03:09:47;4.10;99.90
31391;DHT22;18022;45.492;11.548;2022-12-18T03:12:15;4.10;99.90
31391;DHT22;18022;45.492;11.548;2022-12-18T03:15:10;4.10;99.90
31391;DHT22;18022;45.492;11.548;2022-12-18T03:17:39;4.10;99.90
31391;DHT22;18022;45.492;11.548;2022-12-18T03:20:12;4.20;99.90
31391;DHT22;18022;45.492;11.548;2022-12-18T03:22:38;4.20;99.90
31391;DHT22;18022;45.492;11.548;2022-12-18T03:25:08;4.10;99.90
31391;DHT22;18022;45.492;11.548;2022-12-18T03:27:38;4.10;99.90
31391;DHT22;18022;45.492;11.548;2022-12-18T03:30:08;4.10;99.90
31391;DHT22;18022;45.492;11.548;2022-12-18T03:32:56;4.10;99.90
31391;DHT22;18022;45.492;11.548;2022-12-18T03:35:28;4.20;99.90
31391;DHT22;18022;45.492;11.548;2022-12-18T03:37:54;4.20;99.90
31391;DHT22;18022;45.492;11.548;2022-12-18T03:40:28;4.20;99.90
31391;DHT22;18022;45.492;11.548;2022-12-18T03:43:10;4.10;99.90
31391;DHT22;18022;45.492;11.548;2022-12-18T03:45:41;4.10;99.90
31391;DHT22;18022;45.492;11.548;2022-12-18T03:48:32;4.20;99.90
31391;DHT22;18022;45.492;11.548;2022-12-18T03:51:11;4.20;99.90
31391;DHT22;18022;45.492;11.548;2022-12-18T03:53:58;4.10;99.90
31391;DHT22;18022;45.492;11.548;2022-12-18T03:56:28;4.10;99.90
31391;DHT22;18022;45.492;11.548;2022-12-18T03:58:55;4.00;99.90
31391;DHT22;18022;45.492;11.548;2022-12-18T04:01:30;4.10;99.90
31391;DHT22;18022;45.492;11.548;2022-12-18T04:04:00;4.20;99.90
31391;DHT22;18022;45.492;11.548;2022-12-18T04:06:27;4.20;99.90
31391;DHT22;18022;45.492;11.548;2022-12-18T04:08:53;4.20;99.90
31391;DHT22;18022;45.492;11.548;2022-12-18T04:11:19;4.10;99.90
31391;DHT22;18022;45.492;11.548;2022-12-18T04:13:44;4.10;99.90
31391;DHT22;18022;45.492;11.548;2022-12-18T04:16:10;4.00;99.90
31391;DHT22;18022;45.492;11.548;2022-12-18T04:18:37;4.00;99.90
31391;DHT22;18022;45.492;11.548;2022-12-18T04:21:03;4.00;99.90
31391;DHT22;18022;45.492;11.548;2022-12-18T04:23:28;4.00;99.90
31391;DHT22;18022;45.492;11.548;2022-12-18T04:25:54;4.00;99.90
31391;DHT22;18022;45.492;11.548;2022-12-18T04:28:20;4.00;99.90
31391;DHT22;18022;45.492;11.548;2022-12-18T04:30:46;4.00;99.90
31391;DHT22;18022;45.492;11.548;2022-12-18T04:33:13;3.90;99.90
31391;DHT22;18022;45.492;11.548;2022-12-18T04:35:41;3.80;99.90
31391;DHT22;18022;45.492;11.548;2022-12-18T04:38:07;3.60;99.90
31391;DHT22;18022;45.492;11.548;2022-12-18T04:40:35;3.60;99.90
31391;DHT22;18022;45.492;11.548;2022-12-18T04:43:01;3.90;99.90
31391;DHT22;18022;45.492;11.548;2022-12-18T04:45:27;4.20;99.90
31391;DHT22;18022;45.492;11.548;2022-12-18T04:47:53;4.30;99.90
31391;DHT22;18022;45.492;11.548;2022-12-18T04:50:18;4.20;99.90
31391;DHT22;18022;45.492;11.548;2022-12-18T04:52:44;4.20;99.90
31391;DHT22;18022;45.492;11.548;2022-12-18T04:55:10;4.20;99.90
31391;DHT22;18022;45.492;11.548;2022-12-18T04:57:35;4.20;99.90
31391;DHT22;18022;45.492;11.548;2022-12-18T05:00:01;4.20;99.90
31391;DHT22;18022;45.492;11.548;2022-12-18T05:02:27;4.20;99.90
31391;DHT22;18022;45.492;11.548;2022-12-18T05:04:53;4.10;99.90
31391;DHT22;18022;45.492;11.548;2022-12-18T05:07:18;4.10;99.90
31391;DHT22;18022;45.492;11.548;2022-12-18T05:09:44;4.10;99.90
31391;DHT22;18022;45.492;11.548;2022-12-18T05:12:10;3.90;99.90
31391;DHT22;18022;45.492;11.548;2022-12-18T05:14:35;3.80;99.90
31391;DHT22;18022;45.492;11.548;2022-12-18T05:17:01;3.70;99.90
31391;DHT22;18022;45.492;11.548;2022-12-18T05:19:27;3.70;99.90
31391;DHT22;18022;45.492;11.548;2022-12-18T05:21:52;3.70;99.90
31391;DHT22;18022;45.492;11.548;2022-12-18T05:24:18;3.70;99.90
31391;DHT22;18022;45.492;11.548;2022-12-18T05:26:43;3.60;99.90
31391;DHT22;18022;45.492;11.548;2022-12-18T05:29:09;3.70;99.90
31391;DHT22;18022;45.492;11.548;2022-12-18T05:31:37;3.70;99.90
31391;DHT22;18022;45.492;11.548;2022-12-18T05:34:03;3.70;99.90
31391;DHT22;18022;45.492;11.548;2022-12-18T05:36:29;3.70;99.90
31391;DHT22;18022;45.492;11.548;2022-12-18T05:38:55;3.60;99.90
31391;DHT22;18022;45.492;11.548;2022-12-18T05:41:20;3.50;99.90
31391;DHT22;18022;45.492;11.548;2022-12-18T05:43:46;3.60;99.90
31391;DHT22;18022;45.492;11.548;2022-12-18T05:46:14;3.70;99.90
31391;DHT22;18022;45.492;11.548;2022-12-18T05:48:40;3.60;99.90
31391;DHT22;18022;45.492;11.548;2022-12-18T05:51:17;3.70;99.90
31391;DHT22;18022;45.492;11.548;2022-12-18T05:53:43;3.60;99.90
31391;DHT22;18022;45.492;11.548;2022-12-18T05:56:12;3.60;99.90
31391;DHT22;18022;45.492;11.548;2022-12-18T05:58:38;3.50;99.90
31391;DHT22;18022;45.492;11.548;2022-12-18T06:01:10;3.50;99.90
31391;DHT22;18022;45.492;11.548;2022-12-18T06:03:36;3.40;99.90
31391;DHT22;18022;45.492;11.548;2022-12-18T06:06:02;3.40;99.90
31391;DHT22;18022;45.492;11.548;2022-12-18T06:08:27;3.40;99.90
31391;DHT22;18022;45.492;11.548;2022-12-18T06:10:53;3.30;99.90
31391;DHT22;18022;45.492;11.548;2022-12-18T06:13:20;3.40;99.90
31391;DHT22;18022;45.492;11.548;2022-12-18T06:15:45;3.50;99.90
31391;DHT22;18022;45.492;11.548;2022-12-18T06:18:11;3.50;99.90
31391;DHT22;18022;45.492;11.548;2022-12-18T06:20:37;3.40;99.90
31391;DHT22;18022;45.492;11.548;2022-12-18T06:23:05;3.40;99.90
31391;DHT22;18022;45.492;11.548;2022-12-18T06:25:31;3.20;99.90
31391;DHT22;18022;45.492;11.548;2022-12-18T06:27:58;3.30;99.90
31391;DHT22;18022;45.492;11.548;2022-12-18T06:30:24;3.30;99.90
31391;DHT22;18022;45.492;11.548;2022-12-18T06:32:50;3.40;99.90
31391;DHT22;18022;45.492;11.548;2022-12-18T06:35:16;3.50;99.90
31391;DHT22;18022;45.492;11.548;2022-12-18T06:37:41;3.50;99.90
31391;DHT22;18022;45.492;11.548;2022-12-18T06:40:07;3.30;99.90
31391;DHT22;18022;45.492;11.548;2022-12-18T06:42:33;3.30;99.90
31391;DHT22;18022;45.492;11.548;2022-12-18T06:44:59;3.20;99.90
31391;DHT22;18022;45.492;11.548;2022-12-18T06:47:25;3.10;99.90
31391;DHT22;18022;45.492;11.548;2022-12-18T06:49:50;3.20;99.90
31391;DHT22;18022;45.492;11.548;2022-12-18T06:52:16;3.10;99.90
31391;DHT22;18022;45.492;11.548;2022-12-18T06:54:42;2.90;99.90
31391;DHT22;18022;45.492;11.548;2022-12-18T06:57:08;2.90;99.90
31391;DHT22;18022;45.492;11.548;2022-12-18T06:59:33;3.00;99.90
31391;DHT22;18022;45.492;11.548;2022-12-18T07:01:59;3.00;99.90
31391;DHT22;18022;45.492;11.548;2022-12-18T07:04:31;3.00;99.90
31391;DHT22;18022;45.492;11.548;2022-12-18T07:06:57;3.00;99.90
31391;DHT22;18022;45.492;11.548;2022-12-18T07:09:23;3.00;99.90
31391;DHT22;18022;45.492;11.548;2022-12-18T07:11:49;3.00;99.90
31391;DHT22;18022;45.492;11.548;2022-12-18T07:14:15;2.90;99.90
31391;DHT22;18022;45.492;11.548;2022-12-18T07:16:40;3.00;99.90
31391;DHT22;18022;45.492;11.548;2022-12-18T07:19:06;2.90;99.90
31391;DHT22;18022;45.492;11.548;2022-12-18T07:21:32;2.90;99.90
31391;DHT22;18022;45.492;11.548;2022-12-18T07:23:57;2.90;99.90
31391;DHT22;18022;45.492;11.548;2022-12-18T07:26:23;3.00;99.90
31391;DHT22;18022;45.492;11.548;2022-12-18T07:28:49;3.00;99.90
31391;DHT22;18022;45.492;11.548;2022-12-18T07:31:20;3.00;99.90
31391;DHT22;18022;45.492;11.548;2022-12-18T07:33:46;3.10;99.90
31391;DHT22;18022;45.492;11.548;2022-12-18T07:36:13;3.10;99.90
31391;DHT22;18022;45.492;11.548;2022-12-18T07:38:38;3.10;99.90
31391;DHT22;18022;45.492;11.548;2022-12-18T07:41:07;3.30;99.90
31391;DHT22;18022;45.492;11.548;2022-12-18T07:43:33;3.30;99.90
31391;DHT22;18022;45.492;11.548;2022-12-18T07:45:59;3.40;99.90
31391;DHT22;18022;45.492;11.548;2022-12-18T07:48:25;3.40;99.90
31391;DHT22;18022;45.492;11.548;2022-12-18T07:50:50;3.50;99.90
31391;DHT22;18022;45.492;11.548;2022-12-18T07:53:16;3.50;99.90
31391;DHT22;18022;45.492;11.548;2022-12-18T07:55:42;3.40;99.90
31391;DHT22;18022;45.492;11.548;2022-12-18T07:58:08;3.40;99.90
31391;DHT22;18022;45.492;11.548;2022-12-18T08:00:34;3.40;99.90
31391;DHT22;18022;45.492;11.548;2022-12-18T08:03:00;3.40;99.90
31391;DHT22;18022;45.492;11.548;2022-12-18T08:05:26;3.50;99.90
31391;DHT22;18022;45.492;11.548;2022-12-18T08:07:53;3.50;99.90
31391;DHT22;18022;45.492;11.548;2022-12-18T08:10:19;3.70;99.90
31391;DHT22;18022;45.492;11.548;2022-12-18T08:12:45;3.70;99.90
31391;DHT22;18022;45.492;11.548;2022-12-18T08:15:11;3.90;99.90
31391;DHT22;18022;45.492;11.548;2022-12-18T08:17:36;4.00;99.90
31391;DHT22;18022;45.492;11.548;2022-12-18T08:20:02;4.00;99.90
31391;DHT22;18022;45.492;11.548;2022-12-18T08:22:28;4.00;99.90
31391;DHT22;18022;45.492;11.548;2022-12-18T08:24:54;4.10;99.90
31391;DHT22;18022;45.492;11.548;2022-12-18T08:27:20;4.20;99.90
31391;DHT22;18022;45.492;11.548;2022-12-18T08:29:45;4.30;99.90
31391;DHT22;18022;45.492;11.548;2022-12-18T08:32:11;4.30;99.90
31391;DHT22;18022;45.492;11.548;2022-12-18T08:34:37;4.50;99.90
31391;DHT22;18022;45.492;11.548;2022-12-18T08:37:03;4.60;99.90
31391;DHT22;18022;45.492;11.548;2022-12-18T08:39:29;4.70;99.90
31391;DHT22;18022;45.492;11.548;2022-12-18T08:41:54;4.70;99.90
31391;DHT22;18022;45.492;11.548;2022-12-18T08:44:39;4.60;99.90
31391;DHT22;18022;45.492;11.548;2022-12-18T08:47:08;4.70;99.90
31391;DHT22;18022;45.492;11.548;2022-12-18T08:49:34;5.00;99.90
31391;DHT22;18022;45.492;11.548;2022-12-18T08:52:00;5.10;99.90
31391;DHT22;18022;45.492;11.548;2022-12-18T08:54:26;5.10;99.90
31391;DHT22;18022;45.492;11.548;2022-12-18T08:56:52;5.10;99.90
31391;DHT22;18022;45.492;11.548;2022-12-18T08:59:18;5.20;99.90
31391;DHT22;18022;45.492;11.548;2022-12-18T09:01:44;5.30;99.90
31391;DHT22;18022;45.492;11.548;2022-12-18T09:04:10;5.40;99.90
31391;DHT22;18022;45.492;11.548;2022-12-18T09:06:37;5.50;99.90
31391;DHT22;18022;45.492;11.548;2022-12-18T09:09:04;5.70;99.90
31391;DHT22;18022;45.492;11.548;2022-12-18T09:11:30;5.80;99.90
31391;DHT22;18022;45.492;11.548;2022-12-18T09:13:58;5.90;99.90
31391;DHT22;18022;45.492;11.548;2022-12-18T09:16:25;6.00;99.90
31391;DHT22;18022;45.492;11.548;2022-12-18T09:18:51;6.10;99.90
31391;DHT22;18022;45.492;11.548;2022-12-18T09:21:19;6.30;99.90
31391;DHT22;18022;45.492;11.548;2022-12-18T09:23:52;6.30;99.90
31391;DHT22;18022;45.492;11.548;2022-12-18T09:26:18;6.40;99.90
31391;DHT22;18022;45.492;11.548;2022-12-18T09:28:44;6.50;99.90
31391;DHT22;18022;45.492;11.548;2022-12-18T09:31:11;6.60;99.90
31391;DHT22;18022;45.492;11.548;2022-12-18T09:33:38;6.70;99.90
31391;DHT22;18022;45.492;11.548;2022-12-18T09:36:05;6.70;99.90
31391;DHT22;18022;45.492;11.548;2022-12-18T09:38:32;6.70;99.90
31391;DHT22;18022;45.492;11.548;2022-12-18T09:44:01;7.20;99.90
31391;DHT22;18022;45.492;11.548;2022-12-18T09:46:33;7.30;99.90
31391;DHT22;18022;45.492;11.548;2022-12-18T09:49:02;7.40;99.90
31391;DHT22;18022;45.492;11.548;2022-12-18T09:51:43;7.60;99.90
31391;DHT22;18022;45.492;11.548;2022-12-18T09:54:29;7.90;99.90
31391;DHT22;18022;45.492;11.548;2022-12-18T09:56:57;8.00;99.90
31391;DHT22;18022;45.492;11.548;2022-12-18T09:59:32;7.90;99.90
31391;DHT22;18022;45.492;11.548;2022-12-18T10:01:59;8.20;99.90
31391;DHT22;18022;45.492;11.548;2022-12-18T10:04:27;8.20;99.90
31391;DHT22;18022;45.492;11.548;2022-12-18T10:07:03;8.20;99.90
31391;DHT22;18022;45.492;11.548;2022-12-18T10:09:53;8.60;99.90
31391;DHT22;18022;45.492;11.548;2022-12-18T10:12:38;8.40;99.90
31391;DHT22;18022;45.492;11.548;2022-12-18T10:15:10;8.60;99.90
31391;DHT22;18022;45.492;11.548;2022-12-18T10:17:59;8.80;99.90
31391;DHT22;18022;45.492;11.548;2022-12-18T10:22:57;8.80;99.90
31391;DHT22;18022;45.492;11.548;2022-12-18T10:25:31;8.80;99.90
31391;DHT22;18022;45.492;11.548;2022-12-18T10:28:12;8.80;99.60
31391;DHT22;18022;45.492;11.548;2022-12-18T10:30:39;8.90;99.40
31391;DHT22;18022;45.492;11.548;2022-12-18T10:33:05;8.80;98.50
31391;DHT22;18022;45.492;11.548;2022-12-18T10:35:31;8.70;99.70
31391;DHT22;18022;45.492;11.548;2022-12-18T10:43:29;9.10;98.30
31391;DHT22;18022;45.492;11.548;2022-12-18T10:51:34;9.10;97.70
31391;DHT22;18022;45.492;11.548;2022-12-18T10:54:23;9.20;97.20
31391;DHT22;18022;45.492;11.548;2022-12-18T10:56:49;9.30;97.40
31391;DHT22;18022;45.492;11.548;2022-12-18T10:59:17;9.40;98.00
31391;DHT22;18022;45.492;11.548;2022-12-18T11:01:51;9.50;97.50
31391;DHT22;18022;45.492;11.548;2022-12-18T11:04:26;9.60;97.10
31391;DHT22;18022;45.492;11.548;2022-12-18T11:07:01;9.70;97.50
31391;DHT22;18022;45.492;11.548;2022-12-18T11:09:31;9.70;97.70
31391;DHT22;18022;45.492;11.548;2022-12-18T11:12:03;9.70;96.90
31391;DHT22;18022;45.492;11.548;2022-12-18T11:14:34;9.70;97.00
31391;DHT22;18022;45.492;11.548;2022-12-18T11:17:01;9.70;96.50
31391;DHT22;18022;45.492;11.548;2022-12-18T11:19:37;9.90;97.00
31391;DHT22;18022;45.492;11.548;2022-12-18T11:27:48;10.10;97.70
31391;DHT22;18022;45.492;11.548;2022-12-18T11:30:22;10.20;95.90
31391;DHT22;18022;45.492;11.548;2022-12-18T11:40:42;10.40;97.40
31391;DHT22;18022;45.492;11.548;2022-12-18T11:43:20;10.30;96.70
31391;DHT22;18022;45.492;11.548;2022-12-18T11:48:52;10.30;96.80
31391;DHT22;18022;45.492;11.548;2022-12-18T11:51:32;10.40;97.10
31391;DHT22;18022;45.492;11.548;2022-12-18T11:54:00;10.50;96.60
31391;DHT22;18022;45.492;11.548;2022-12-18T11:56:35;10.50;97.20
31391;DHT22;18022;45.492;11.548;2022-12-18T11:59:14;10.60;97.00
31391;DHT22;18022;45.492;11.548;2022-12-18T12:01:51;10.70;96.90
31391;DHT22;18022;45.492;11.548;2022-12-18T12:13:06;10.60;96.40
31391;DHT22;18022;45.492;11.548;2022-12-18T12:18:18;10.60;97.10
31391;DHT22;18022;45.492;11.548;2022-12-18T12:21:05;10.70;97.00
31391;DHT22;18022;45.492;11.548;2022-12-18T12:26:36;11.00;96.90
31391;DHT22;18022;45.492;11.548;2022-12-18T12:40:05;10.80;97.10
31391;DHT22;18022;45.492;11.548;2022-12-18T12:42:35;10.90;97.40
31391;DHT22;18022;45.492;11.548;2022-12-18T12:45:28;11.00;97.70
31391;DHT22;18022;45.492;11.548;2022-12-18T12:47:57;10.90;96.80
31391;DHT22;18022;45.492;11.548;2022-12-18T12:50:23;10.80;96.40
31391;DHT22;18022;45.492;11.548;2022-12-18T12:52:53;10.90;97.10
31391;DHT22;18022;45.492;11.548;2022-12-18T12:55:26;10.90;96.70
31391;DHT22;18022;45.492;11.548;2022-12-18T13:00:20;11.10;95.90
31391;DHT22;18022;45.492;11.548;2022-12-18T13:02:59;11.00;96.20
31391;DHT22;18022;45.492;11.548;2022-12-18T13:05:31;10.90;96.40
31391;DHT22;18022;45.492;11.548;2022-12-18T13:08:08;10.80;96.30
31391;DHT22;18022;45.492;11.548;2022-12-18T13:10:40;10.70;97.10
31391;DHT22;18022;45.492;11.548;2022-12-18T13:15:42;10.70;97.10
31391;DHT22;18022;45.492;11.548;2022-12-18T13:18:14;10.60;97.20
31391;DHT22;18022;45.492;11.548;2022-12-18T13:20:47;10.40;96.80
31391;DHT22;18022;45.492;11.548;2022-12-18T13:25:59;10.60;96.30
31391;DHT22;18022;45.492;11.548;2022-12-18T13:29:06;10.50;96.30
31391;DHT22;18022;45.492;11.548;2022-12-18T13:34:20;10.40;97.20
31391;DHT22;18022;45.492;11.548;2022-12-18T13:36:46;10.30;96.90
31391;DHT22;18022;45.492;11.548;2022-12-18T13:41:45;10.10;98.60
31391;DHT22;18022;45.492;11.548;2022-12-18T13:46:46;9.80;97.70
31391;DHT22;18022;45.492;11.548;2022-12-18T13:51:44;9.80;97.90
31391;DHT22;18022;45.492;11.548;2022-12-18T13:56:50;9.70;98.60
31391;DHT22;18022;45.492;11.548;2022-12-18T14:01:56;10.00;98.30
31391;DHT22;18022;45.492;11.548;2022-12-18T14:06:53;9.90;98.60
31391;DHT22;18022;45.492;11.548;2022-12-18T14:09:25;9.80;98.50
31391;DHT22;18022;45.492;11.548;2022-12-18T14:11:52;9.80;99.00
31391;DHT22;18022;45.492;11.548;2022-12-18T14:14:41;9.80;98.40
31391;DHT22;18022;45.492;11.548;2022-12-18T14:17:10;9.70;98.50
31391;DHT22;18022;45.492;11.548;2022-12-18T14:19:36;9.70;99.20
31391;DHT22;18022;45.492;11.548;2022-12-18T14:22:03;9.70;99.80
31391;DHT22;18022;45.492;11.548;2022-12-18T14:24:28;9.80;99.00
31391;DHT22;18022;45.492;11.548;2022-12-18T14:27:22;9.70;98.90
31391;DHT22;18022;45.492;11.548;2022-12-18T14:29:48;9.60;98.90
31391;DHT22;18022;45.492;11.548;2022-12-18T14:32:18;9.50;98.50
31391;DHT22;18022;45.492;11.548;2022-12-18T14:34:52;9.50;99.00
31391;DHT22;18022;45.492;11.548;2022-12-18T14:37:24;9.40;99.90
31391;DHT22;18022;45.492;11.548;2022-12-18T14:40:01;9.30;99.90
31391;DHT22;18022;45.492;11.548;2022-12-18T14:42:31;9.70;99.90
31391;DHT22;18022;45.492;11.548;2022-12-18T14:45:34;9.60;99.30
31391;DHT22;18022;45.492;11.548;2022-12-18T14:48:01;9.20;99.00
31391;DHT22;18022;45.492;11.548;2022-12-18T14:50:31;8.90;99.60
31391;DHT22;18022;45.492;11.548;2022-12-18T14:52:57;8.80;99.90
31391;DHT22;18022;45.492;11.548;2022-12-18T14:55:22;8.60;99.80
31391;DHT22;18022;45.492;11.548;2022-12-18T14:57:53;8.50;99.90
31391;DHT22;18022;45.492;11.548;2022-12-18T15:00:22;8.50;99.90
31391;DHT22;18022;45.492;11.548;2022-12-18T15:02:50;8.40;99.90
31391;DHT22;18022;45.492;11.548;2022-12-18T15:05:35;8.40;99.90
31391;DHT22;18022;45.492;11.548;2022-12-18T15:08:01;8.10;99.90
31391;DHT22;18022;45.492;11.548;2022-12-18T15:10:32;8.10;99.90
31391;DHT22;18022;45.492;11.548;2022-12-18T15:20:51;7.60;99.90
31391;DHT22;18022;45.492;11.548;2022-12-18T15:25:45;7.50;99.90
31391;DHT22;18022;45.492;11.548;2022-12-18T15:28:32;7.30;99.90
31391;DHT22;18022;45.492;11.548;2022-12-18T15:36:22;7.40;99.90
31391;DHT22;18022;45.492;11.548;2022-12-18T15:38:49;7.50;99.90
31391;DHT22;18022;45.492;11.548;2022-12-18T15:41:18;7.20;99.90
31391;DHT22;18022;45.492;11.548;2022-12-18T15:43:45;7.00;99.90
31391;DHT22;18022;45.492;11.548;2022-12-18T15:46:17;6.70;99.90
31391;DHT22;18022;45.492;11.548;2022-12-18T15:48:48;6.70;99.90
31391;DHT22;18022;45.492;11.548;2022-12-18T15:51:17;6.60;99.90
31391;DHT22;18022;45.492;11.548;2022-12-18T15:53:44;6.50;99.90
31391;DHT22;18022;45.492;11.548;2022-12-18T15:56:14;6.40;99.90
31391;DHT22;18022;45.492;11.548;2022-12-18T15:59:00;6.30;99.90
31391;DHT22;18022;45.492;11.548;2022-12-18T16:01:29;6.20;99.90
31391;DHT22;18022;45.492;11.548;2022-12-18T16:03:55;6.10;99.90
31391;DHT22;18022;45.492;11.548;2022-12-18T16:06:22;6.10;99.90
31391;DHT22;18022;45.492;11.548;2022-12-18T16:08:48;6.10;99.90
31391;DHT22;18022;45.492;11.548;2022-12-18T16:11:25;6.00;99.90
31391;DHT22;18022;45.492;11.548;2022-12-18T16:14:25;5.90;99.90
31391;DHT22;18022;45.492;11.548;2022-12-18T16:16:58;5.90;99.90
31391;DHT22;18022;45.492;11.548;2022-12-18T16:19:25;5.90;99.90
31391;DHT22;18022;45.492;11.548;2022-12-18T16:21:52;5.80;99.90
31391;DHT22;18022;45.492;11.548;2022-12-18T16:24:28;5.70;99.90
31391;DHT22;18022;45.492;11.548;2022-12-18T16:26:56;5.70;99.90
31391;DHT22;18022;45.492;11.548;2022-12-18T16:29:23;5.60;99.90
31391;DHT22;18022;45.492;11.548;2022-12-18T16:32:00;5.50;99.90
31391;DHT22;18022;45.492;11.548;2022-12-18T16:34:33;5.50;99.90
31391;DHT22;18022;45.492;11.548;2022-12-18T16:37:02;5.50;99.90
31391;DHT22;18022;45.492;11.548;2022-12-18T16:39:28;5.40;99.90
31391;DHT22;18022;45.492;11.548;2022-12-18T16:41:54;5.30;99.90
31391;DHT22;18022;45.492;11.548;2022-12-18T16:44:20;5.30;99.90
31391;DHT22;18022;45.492;11.548;2022-12-18T16:46:46;5.20;99.90
31391;DHT22;18022;45.492;11.548;2022-12-18T16:49:16;5.20;99.90
31391;DHT22;18022;45.492;11.548;2022-12-18T16:51:43;5.20;99.90
31391;DHT22;18022;45.492;11.548;2022-12-18T16:54:09;5.20;99.90
31391;DHT22;18022;45.492;11.548;2022-12-18T16:56:35;5.00;99.90
31391;DHT22;18022;45.492;11.548;2022-12-18T16:59:02;4.90;99.90
31391;DHT22;18022;45.492;11.548;2022-12-18T17:01:29;4.90;99.90
31391;DHT22;18022;45.492;11.548;2022-12-18T17:04:01;4.90;99.90
31391;DHT22;18022;45.492;11.548;2022-12-18T17:06:30;5.00;99.90
31391;DHT22;18022;45.492;11.548;2022-12-18T17:08:57;5.20;99.90
31391;DHT22;18022;45.492;11.548;2022-12-18T17:11:25;5.20;99.90
31391;DHT22;18022;45.492;11.548;2022-12-18T17:13:51;5.10;99.90
31391;DHT22;18022;45.492;11.548;2022-12-18T17:16:18;5.00;99.90
31391;DHT22;18022;45.492;11.548;2022-12-18T17:18:44;5.00;99.90
31391;DHT22;18022;45.492;11.548;2022-12-18T17:21:11;5.00;99.90
31391;DHT22;18022;45.492;11.548;2022-12-18T17:23:42;4.90;99.90
31391;DHT22;18022;45.492;11.548;2022-12-18T17:26:11;4.80;99.90
31391;DHT22;18022;45.492;11.548;2022-12-18T17:28:39;4.60;99.90
31391;DHT22;18022;45.492;11.548;2022-12-18T17:31:18;4.60;99.90
31391;DHT22;18022;45.492;11.548;2022-12-18T17:33:45;4.50;99.90
31391;DHT22;18022;45.492;11.548;2022-12-18T17:36:12;4.50;99.90
31391;DHT22;18022;45.492;11.548;2022-12-18T17:38:38;4.60;99.90
31391;DHT22;18022;45.492;11.548;2022-12-18T17:41:05;4.60;99.90
31391;DHT22;18022;45.492;11.548;2022-12-18T17:43:32;4.60;99.90